createdAt,value
2023-01-20T00:01:27.991Z,15.23
2023-01-20T00:04:00.656Z,15.25
2023-01-20T00:06:31.899Z,15.43
2023-01-20T00:09:04.890Z,16.05
2023-01-20T00:11:36.024Z,15.85
2023-01-20T00:14:06.963Z,14.43
2023-01-20T00:16:37.790Z,14.87
2023-01-20T00:19:08.863Z,14.05
2023-01-20T00:21:39.974Z,13.98
2023-01-20T00:24:11.041Z,13.48
2023-01-20T00:26:41.833Z,12.78
2023-01-20T00:29:12.851Z,13.65
2023-01-20T00:31:43.903Z,13.70
2023-01-20T00:34:14.762Z,13.72
2023-01-20T00:36:45.597Z,14.55
2023-01-20T00:39:16.434Z,14.50
2023-01-20T00:41:47.182Z,10.90
2023-01-20T00:44:17.990Z,12.73
2023-01-20T00:46:49.333Z,11.25
2023-01-20T00:49:20.058Z,13.40
2023-01-20T00:51:50.736Z,12.05
2023-01-20T00:54:21.761Z,11.53
2023-01-20T00:56:52.541Z,10.98
2023-01-20T00:59:23.224Z,11.60
2023-01-20T01:01:54.440Z,10.93
2023-01-20T01:04:26.249Z,12.30
2023-01-20T01:06:57.019Z,13.00
2023-01-20T01:09:27.809Z,11.70
2023-01-20T01:11:58.601Z,12.05
2023-01-20T01:14:29.476Z,11.33
2023-01-20T01:17:00.274Z,12.03
2023-01-20T01:19:31.122Z,13.20
2023-01-20T01:22:01.775Z,9.75
2023-01-20T01:24:32.464Z,10.28
2023-01-20T01:27:04.645Z,10.80
2023-01-20T01:29:35.422Z,8.28
2023-01-20T01:32:06.455Z,9.78
2023-01-20T01:34:37.511Z,8.43
2023-01-20T01:37:09.140Z,9.35
2023-01-20T01:39:39.906Z,9.78
2023-01-20T01:42:18.156Z,9.83
2023-01-20T01:45:14.437Z,7.75
2023-01-20T01:50:30.972Z,8.78
2023-01-20T01:53:02.567Z,10.03
2023-01-20T01:55:35.775Z,8.73
2023-01-20T01:58:09.184Z,8.05
2023-01-20T02:00:41.213Z,8.88
2023-01-20T02:03:13.283Z,8.90
2023-01-20T02:05:46.029Z,6.65
2023-01-20T02:08:17.530Z,7.92
2023-01-20T02:10:48.736Z,9.00
2023-01-20T02:13:20.020Z,8.68
2023-01-20T02:16:03.765Z,13.22
2023-01-20T02:18:40.431Z,7.72
2023-01-20T02:21:25.800Z,9.08
2023-01-20T02:24:24.110Z,9.43
2023-01-20T02:27:06.460Z,9.13
2023-01-20T02:29:51.480Z,8.23
2023-01-20T02:32:49.458Z,8.80
2023-01-20T02:35:28.490Z,7.78
2023-01-20T02:38:10.574Z,7.80
2023-01-20T02:40:52.631Z,7.62
2023-01-20T02:43:42.709Z,7.65
2023-01-20T02:46:15.991Z,8.20
2023-01-20T02:49:23.210Z,7.40
2023-01-20T02:52:03.132Z,7.17
2023-01-20T02:54:35.905Z,7.67
2023-01-20T02:57:09.828Z,8.25
2023-01-20T02:59:43.504Z,7.70
2023-01-20T03:02:20.820Z,8.48
2023-01-20T03:04:57.851Z,7.55
2023-01-20T03:07:31.962Z,8.30
2023-01-20T03:10:05.105Z,7.65
2023-01-20T03:12:54.466Z,9.03
2023-01-20T03:15:29.001Z,7.65
2023-01-20T03:18:00.995Z,7.70
2023-01-20T03:20:32.963Z,7.53
2023-01-20T03:23:03.816Z,7.37
2023-01-20T03:25:36.047Z,7.28
2023-01-20T03:28:07.087Z,6.90
2023-01-20T03:30:46.459Z,6.70
2023-01-20T03:33:19.935Z,7.87
2023-01-20T03:35:52.390Z,8.25
2023-01-20T03:38:23.728Z,7.22
2023-01-20T03:41:06.226Z,7.67
2023-01-20T03:43:43.409Z,7.87
2023-01-20T03:46:20.698Z,7.65
2023-01-20T03:48:58.892Z,7.22
2023-01-20T03:51:39.080Z,7.00
2023-01-20T03:54:12.403Z,7.33
2023-01-20T03:56:56.102Z,7.25
2023-01-20T03:59:28.716Z,7.15
2023-01-20T04:02:03.020Z,7.10
2023-01-20T04:04:37.072Z,7.50
2023-01-20T04:07:12.809Z,6.72
2023-01-20T04:09:51.898Z,7.60
2023-01-20T04:12:23.067Z,7.15
2023-01-20T04:14:54.599Z,7.17
2023-01-20T04:17:32.786Z,8.23
2023-01-20T04:20:10.257Z,8.95
2023-01-20T04:22:55.546Z,6.90
2023-01-20T04:25:35.183Z,6.70
2023-01-20T04:28:06.271Z,6.45
2023-01-20T04:30:47.851Z,6.90
2023-01-20T04:33:22.897Z,6.50
2023-01-20T04:35:54.234Z,6.03
2023-01-20T04:38:25.940Z,5.85
2023-01-20T04:40:57.055Z,6.03
2023-01-20T04:43:28.240Z,6.17
2023-01-20T04:45:59.394Z,6.47
2023-01-20T04:48:32.789Z,5.83
2023-01-20T04:51:06.598Z,5.87
2023-01-20T04:53:37.471Z,5.70
2023-01-20T04:56:16.494Z,5.25
2023-01-20T04:58:48.736Z,5.10
2023-01-20T05:01:19.882Z,5.05
2023-01-20T05:03:51.164Z,5.45
2023-01-20T05:06:22.040Z,6.17
2023-01-20T05:08:52.796Z,5.33
2023-01-20T05:11:23.948Z,6.15
2023-01-20T05:13:55.044Z,6.75
2023-01-20T05:16:26.997Z,5.97
2023-01-20T05:18:57.670Z,6.40
2023-01-20T05:21:28.481Z,6.03
2023-01-20T05:24:00.085Z,6.35
2023-01-20T05:26:31.279Z,7.35
2023-01-20T05:29:02.105Z,6.67
2023-01-20T05:31:36.113Z,6.35
2023-01-20T05:34:06.850Z,6.12
2023-01-20T05:36:37.618Z,6.10
2023-01-20T05:39:08.962Z,5.87
2023-01-20T05:41:39.892Z,6.20
2023-01-20T05:44:10.860Z,5.37
2023-01-20T05:46:42.312Z,6.12
2023-01-20T05:49:16.946Z,6.45
2023-01-20T05:51:48.488Z,6.28
2023-01-20T05:54:19.926Z,5.62
2023-01-20T05:56:51.952Z,6.00
2023-01-20T05:59:23.121Z,6.10
2023-01-20T06:01:54.590Z,6.10
2023-01-20T06:04:25.807Z,5.97
2023-01-20T06:06:57.886Z,5.92
2023-01-20T06:09:29.379Z,5.85
2023-01-20T06:12:00.286Z,5.28
2023-01-20T06:14:31.783Z,5.05
2023-01-20T06:17:03.027Z,5.30
2023-01-20T06:19:34.454Z,5.47
2023-01-20T06:22:05.504Z,5.37
2023-01-20T06:24:36.418Z,5.85
2023-01-20T06:27:21.730Z,6.25
2023-01-20T06:29:53.196Z,6.10
2023-01-20T06:32:34.590Z,6.00
2023-01-20T06:35:05.827Z,5.05
2023-01-20T06:37:39.128Z,5.87
2023-01-20T06:40:11.911Z,4.97
2023-01-20T06:42:44.082Z,5.72
2023-01-20T06:45:17.551Z,5.03
2023-01-20T06:47:52.519Z,5.58
2023-01-20T06:50:23.397Z,4.80
2023-01-20T06:52:55.616Z,5.45
2023-01-20T06:55:27.898Z,4.65
2023-01-20T06:57:58.797Z,5.37
2023-01-20T07:00:30.058Z,5.47
2023-01-20T07:06:05.598Z,5.03
2023-01-20T07:08:36.691Z,6.65
2023-01-20T07:11:08.226Z,6.22
2023-01-20T07:13:39.891Z,5.00
2023-01-20T07:16:16.033Z,4.22
2023-01-20T07:18:53.182Z,4.20
2023-01-20T07:21:26.512Z,4.10
2023-01-20T07:23:57.848Z,4.30
2023-01-20T07:26:35.153Z,4.20
2023-01-20T07:29:06.598Z,4.12
2023-01-20T07:31:37.778Z,4.28
2023-01-20T07:34:09.222Z,3.90
2023-01-20T07:36:40.569Z,4.15
2023-01-20T07:39:16.595Z,4.12
2023-01-20T07:41:49.018Z,3.73
2023-01-20T07:44:20.030Z,4.15
2023-01-20T07:46:52.709Z,4.33
2023-01-20T07:49:23.852Z,3.72
2023-01-20T07:51:54.850Z,3.87
2023-01-20T07:54:25.704Z,4.00
2023-01-20T07:56:56.476Z,4.10
2023-01-20T07:59:28.475Z,3.50
2023-01-20T08:01:59.298Z,3.92
2023-01-20T08:04:30.770Z,3.77
2023-01-20T08:07:02.175Z,3.58
2023-01-20T08:09:32.953Z,3.70
2023-01-20T08:12:03.805Z,3.37
2023-01-20T08:14:37.627Z,4.17
2023-01-20T08:17:07.417Z,3.72
2023-01-20T08:19:38.205Z,4.03
2023-01-20T08:22:09.753Z,4.12
2023-01-20T08:24:40.695Z,4.53
2023-01-20T08:27:11.937Z,4.25
2023-01-20T08:29:42.807Z,4.47
2023-01-20T08:32:13.672Z,3.85
2023-01-20T08:34:44.512Z,3.77
2023-01-20T08:37:15.652Z,4.03
2023-01-20T08:39:46.836Z,4.33
2023-01-20T08:42:17.559Z,4.15
2023-01-20T08:44:48.859Z,4.05
2023-01-20T08:47:20.073Z,4.40
2023-01-20T08:49:51.859Z,4.70
2023-01-20T08:52:24.932Z,4.50
2023-01-20T08:54:55.814Z,4.45
2023-01-20T08:57:28.515Z,4.40
2023-01-20T08:59:59.306Z,4.80
2023-01-20T09:02:35.006Z,4.10
2023-01-20T09:05:05.711Z,4.87
2023-01-20T09:07:45.448Z,5.03
2023-01-20T09:10:20.492Z,5.00
2023-01-20T09:12:51.147Z,5.37
2023-01-20T09:15:23.676Z,4.67
2023-01-20T09:17:54.329Z,5.00
2023-01-20T09:20:25.904Z,4.72
2023-01-20T09:22:57.027Z,4.87
2023-01-20T09:25:28.418Z,4.72
2023-01-20T09:28:00.499Z,4.83
2023-01-20T09:30:32.142Z,4.87
2023-01-20T09:33:03.900Z,5.30
2023-01-20T09:35:35.037Z,5.10
2023-01-20T09:38:23.732Z,3.87
2023-01-20T09:41:38.009Z,4.08
2023-01-20T09:44:23.886Z,4.45
2023-01-20T09:47:24.993Z,4.58
2023-01-20T09:50:35.421Z,4.55
2023-01-20T09:53:16.597Z,4.03
2023-01-20T09:55:59.807Z,5.03
2023-01-20T09:58:36.087Z,4.78
2023-01-20T10:01:19.369Z,4.90
2023-01-20T10:04:18.361Z,5.20
2023-01-20T10:07:07.393Z,5.42
2023-01-20T10:09:46.867Z,5.08
2023-01-20T10:12:37.904Z,5.20
2023-01-20T10:15:14.121Z,5.60
2023-01-20T10:17:53.408Z,5.75
2023-01-20T10:20:33.152Z,5.50
2023-01-20T10:23:15.480Z,5.60
2023-01-20T10:25:52.141Z,5.37
2023-01-20T10:28:30.523Z,5.35
2023-01-20T10:31:08.650Z,5.58
2023-01-20T10:33:45.812Z,5.80
2023-01-20T10:36:33.405Z,4.70
2023-01-20T10:39:31.881Z,5.33
2023-01-20T10:42:09.356Z,6.80
2023-01-20T10:44:44.167Z,6.72
2023-01-20T10:47:21.003Z,10.25
2023-01-20T10:49:54.305Z,11.68
2023-01-20T10:52:42.617Z,11.80
2023-01-20T10:55:22.347Z,9.65
2023-01-20T10:57:55.849Z,9.13
2023-01-20T11:00:34.192Z,7.80
2023-01-20T11:03:10.933Z,8.55
2023-01-20T11:05:43.591Z,8.90
2023-01-20T11:08:19.564Z,8.88
2023-01-20T11:10:52.506Z,9.60
2023-01-20T11:13:44.299Z,8.45
2023-01-20T11:16:22.340Z,10.08
2023-01-20T11:19:05.403Z,9.90
2023-01-20T11:21:39.024Z,8.90
2023-01-20T11:24:29.119Z,9.40
2023-01-20T11:27:11.224Z,9.30
2023-01-20T11:29:45.002Z,8.98
2023-01-20T11:32:36.456Z,9.78
2023-01-20T11:35:25.595Z,8.68
2023-01-20T11:37:56.824Z,9.08
2023-01-20T11:40:34.542Z,9.58
2023-01-20T11:43:05.487Z,9.60
2023-01-20T11:45:38.280Z,9.83
2023-01-20T11:48:17.824Z,10.18
2023-01-20T11:51:00.061Z,10.32
2023-01-20T11:53:38.465Z,10.63
2023-01-20T11:56:21.226Z,9.65
2023-01-20T11:59:00.262Z,9.65
2023-01-20T12:01:53.120Z,9.70
2023-01-20T12:04:38.197Z,9.83
2023-01-20T12:07:12.081Z,9.90
2023-01-20T12:09:48.145Z,9.45
2023-01-20T12:12:22.143Z,10.23
2023-01-20T12:15:01.298Z,10.38
2023-01-20T12:18:06.633Z,10.13
2023-01-20T12:20:56.964Z,11.88
2023-01-20T12:23:53.361Z,12.70
2023-01-20T12:26:26.013Z,13.43
2023-01-20T12:29:05.479Z,15.43
2023-01-20T12:31:36.525Z,19.70
2023-01-20T12:34:10.859Z,16.42
2023-01-20T12:36:56.257Z,16.90
2023-01-20T12:39:33.367Z,17.07
2023-01-20T12:42:24.733Z,16.27
2023-01-20T12:45:00.898Z,15.35
2023-01-20T12:47:46.018Z,15.58
2023-01-20T12:50:19.353Z,15.95
2023-01-20T12:53:11.895Z,15.95
2023-01-20T12:55:58.405Z,15.90
2023-01-20T13:01:38.859Z,15.28
2023-01-20T13:04:34.423Z,15.83
2023-01-20T13:07:13.368Z,16.35
2023-01-20T13:09:50.893Z,15.18
2023-01-20T13:12:38.815Z,14.98
2023-01-20T13:15:27.322Z,15.50
2023-01-20T13:18:20.334Z,16.30
2023-01-20T13:20:53.036Z,15.55
2023-01-20T13:23:29.491Z,16.45
2023-01-20T13:26:04.129Z,14.68
2023-01-20T13:28:37.211Z,14.60
2023-01-20T13:31:26.760Z,16.00
2023-01-20T13:33:58.824Z,18.35
2023-01-20T13:36:29.825Z,16.73
2023-01-20T13:39:34.854Z,17.12
2023-01-20T13:42:06.976Z,16.02
2023-01-20T13:44:42.660Z,14.98
2023-01-20T13:47:15.468Z,16.10
2023-01-20T13:49:58.226Z,16.20
2023-01-20T13:52:53.966Z,16.87
2023-01-20T13:55:46.537Z,16.15
2023-01-20T13:58:19.115Z,16.00
2023-01-20T14:00:52.813Z,16.50
2023-01-20T14:03:26.067Z,16.32
2023-01-20T14:06:17.510Z,16.42
2023-01-20T14:08:52.777Z,15.50
2023-01-20T14:11:26.273Z,15.80
2023-01-20T14:14:07.048Z,16.23
2023-01-20T14:16:40.744Z,15.68
2023-01-20T14:19:27.895Z,16.40
2023-01-20T14:22:00.526Z,16.30
2023-01-20T14:24:33.736Z,17.12
2023-01-20T14:27:25.058Z,17.37
2023-01-20T14:29:58.718Z,15.98
2023-01-20T14:32:37.175Z,16.00
2023-01-20T14:35:28.887Z,16.15
2023-01-20T14:38:01.085Z,15.75
2023-01-20T14:40:38.339Z,15.45
2023-01-20T14:43:23.635Z,14.55
2023-01-20T14:45:55.552Z,15.38
2023-01-20T14:48:34.508Z,15.70
2023-01-20T14:50:59.196Z,16.37
2023-01-20T14:53:30.244Z,15.98
2023-01-20T14:56:04.980Z,16.35
2023-01-20T14:58:37.348Z,16.25
2023-01-20T15:01:09.507Z,16.93
2023-01-20T15:03:40.443Z,16.93
2023-01-20T15:06:23.072Z,17.15
2023-01-20T15:09:06.058Z,17.67
2023-01-20T15:11:30.725Z,18.25
2023-01-20T15:14:07.001Z,17.75
2023-01-20T15:16:47.608Z,19.05
2023-01-20T15:19:27.137Z,18.25
2023-01-20T15:22:00.299Z,18.40
2023-01-20T15:24:42.489Z,17.77
2023-01-20T15:27:28.407Z,18.80
2023-01-20T15:32:33.026Z,18.85
2023-01-20T15:35:12.090Z,19.12
2023-01-20T15:37:47.952Z,18.60
2023-01-20T15:40:25.170Z,19.25
2023-01-20T15:42:57.582Z,19.92
2023-01-20T15:45:28.580Z,19.70
2023-01-20T15:47:59.518Z,20.32
2023-01-20T15:50:32.380Z,19.40
2023-01-20T15:53:04.689Z,19.62
2023-01-20T15:55:38.039Z,20.12
2023-01-20T15:58:13.810Z,20.00
2023-01-20T16:00:44.907Z,19.67
2023-01-20T16:03:15.671Z,22.07
2023-01-20T16:05:47.127Z,22.60
2023-01-20T16:08:23.306Z,21.35
2023-01-20T16:10:54.322Z,23.00
2023-01-20T16:13:25.048Z,22.67
2023-01-20T16:15:55.844Z,23.30
2023-01-20T16:18:26.930Z,23.60
2023-01-20T16:20:59.406Z,23.42
2023-01-20T16:23:30.403Z,23.40
2023-01-20T16:26:01.360Z,22.05
2023-01-20T16:28:32.222Z,23.65
2023-01-20T16:31:03.770Z,23.47
2023-01-20T16:33:34.634Z,22.87
2023-01-20T16:36:23.499Z,25.15
2023-01-20T16:38:55.126Z,25.23
2023-01-20T16:41:28.683Z,25.10
2023-01-20T16:44:04.607Z,25.52
2023-01-20T16:46:36.145Z,25.20
2023-01-20T16:49:07.074Z,25.27
2023-01-20T16:51:37.890Z,24.55
2023-01-20T16:54:08.929Z,23.90
2023-01-20T16:56:40.928Z,24.45
2023-01-20T16:59:12.414Z,24.20
2023-01-20T17:01:43.392Z,22.80
2023-01-20T17:04:14.078Z,22.27
2023-01-20T17:06:45.904Z,23.67
2023-01-20T17:09:16.852Z,22.22
2023-01-20T17:11:47.562Z,22.20
2023-01-20T17:14:18.268Z,21.90
2023-01-20T17:16:49.188Z,21.87
2023-01-20T17:19:20.695Z,21.82
2023-01-20T17:21:52.365Z,22.20
2023-01-20T17:24:23.257Z,21.50
2023-01-20T17:26:54.541Z,21.97
2023-01-20T17:29:25.250Z,23.55
2023-01-20T17:31:56.045Z,21.85
2023-01-20T17:34:26.801Z,20.97
2023-01-20T17:36:57.554Z,21.35
2023-01-20T17:39:28.275Z,21.25
2023-01-20T17:41:58.997Z,21.50
2023-01-20T17:44:29.832Z,22.22
2023-01-20T17:47:01.009Z,21.10
2023-01-20T17:49:31.903Z,21.62
2023-01-20T17:52:03.072Z,21.52
2023-01-20T17:54:39.793Z,22.45
2023-01-20T17:57:10.495Z,22.30
2023-01-20T17:59:42.793Z,22.95
2023-01-20T18:02:18.271Z,22.50
2023-01-20T18:04:49.020Z,23.15
2023-01-20T18:07:19.834Z,23.18
2023-01-20T18:09:51.075Z,22.30
2023-01-20T18:12:22.551Z,23.20
2023-01-20T18:14:55.210Z,23.47
2023-01-20T18:17:26.325Z,23.52
2023-01-20T18:19:57.404Z,23.10
2023-01-20T18:22:28.100Z,24.02
2023-01-20T18:25:00.280Z,23.12
2023-01-20T18:27:31.290Z,22.58
2023-01-20T18:30:02.075Z,23.77
2023-01-20T18:32:32.864Z,25.15
2023-01-20T18:35:03.632Z,23.52
2023-01-20T18:37:34.455Z,23.75
2023-01-20T18:40:05.746Z,23.42
2023-01-20T18:42:36.459Z,23.57
2023-01-20T18:45:07.692Z,23.73
2023-01-20T18:47:38.391Z,23.95
2023-01-20T18:50:10.099Z,23.73
2023-01-20T18:52:40.802Z,23.90
2023-01-20T18:55:18.937Z,24.55
2023-01-20T18:57:49.670Z,24.47
2023-01-20T19:00:21.745Z,24.40
2023-01-20T19:02:55.599Z,24.77
2023-01-20T19:05:26.411Z,24.32
2023-01-20T19:07:57.428Z,23.83
2023-01-20T19:10:28.359Z,23.18
2023-01-20T19:12:59.507Z,23.45
2023-01-20T19:15:31.682Z,25.12
2023-01-20T19:18:03.148Z,23.80
2023-01-20T19:20:33.926Z,24.02
2023-01-20T19:23:04.591Z,23.80
2023-01-20T19:25:35.272Z,26.02
2023-01-20T19:28:07.684Z,25.32
2023-01-20T19:30:39.478Z,24.65
2023-01-20T19:33:11.725Z,26.77
2023-01-20T19:35:42.431Z,24.80
2023-01-20T19:38:13.093Z,24.75
2023-01-20T19:40:43.791Z,24.65
2023-01-20T19:43:14.482Z,25.43
2023-01-20T19:45:46.231Z,24.90
2023-01-20T19:48:17.344Z,26.27
2023-01-20T19:50:48.320Z,25.88
2023-01-20T19:53:19.132Z,25.50
2023-01-20T19:55:50.201Z,25.68
2023-01-20T19:58:20.916Z,24.85
2023-01-20T20:00:51.607Z,24.30
2023-01-20T20:03:22.822Z,24.67
2023-01-20T20:05:53.645Z,23.92
2023-01-20T20:08:24.324Z,24.90
2023-01-20T20:10:55.067Z,25.08
2023-01-20T20:13:25.922Z,26.07
2023-01-20T20:16:07.816Z,25.85
2023-01-20T20:18:39.764Z,25.43
2023-01-20T20:21:11.704Z,24.75
2023-01-20T20:23:42.540Z,25.52
2023-01-20T20:26:16.451Z,24.52
2023-01-20T20:28:48.624Z,25.48
2023-01-20T20:31:19.746Z,25.20
2023-01-20T20:33:50.711Z,24.45
2023-01-20T20:36:21.588Z,25.10
2023-01-20T20:38:54.609Z,24.70
2023-01-20T20:41:27.590Z,24.92
2023-01-20T20:43:58.712Z,26.33
2023-01-20T20:46:30.348Z,25.27
2023-01-20T20:49:02.612Z,25.25
2023-01-20T20:51:35.794Z,25.35
2023-01-20T20:54:06.735Z,24.80
2023-01-20T20:56:37.655Z,25.60
2023-01-20T20:59:08.483Z,24.63
2023-01-20T21:01:39.492Z,24.85
2023-01-20T21:04:10.586Z,23.10
2023-01-20T21:06:41.392Z,24.23
2023-01-20T21:09:12.944Z,23.90
2023-01-20T21:11:43.634Z,24.63
2023-01-20T21:14:14.451Z,23.77
2023-01-20T21:16:45.536Z,23.12
2023-01-20T21:19:16.607Z,23.38
2023-01-20T21:21:47.435Z,23.32
2023-01-20T21:24:18.373Z,23.05
2023-01-20T21:26:49.079Z,23.00
2023-01-20T21:29:20.069Z,23.30
2023-01-20T21:31:51.544Z,23.45
2023-01-20T21:34:22.749Z,22.87
2023-01-20T21:36:53.600Z,23.07
2023-01-20T21:39:26.285Z,23.45
2023-01-20T21:41:56.994Z,21.97
2023-01-20T21:44:30.696Z,21.93
2023-01-20T21:47:06.737Z,21.97
2023-01-20T21:49:55.436Z,22.25
2023-01-20T21:52:46.663Z,22.75
2023-01-20T21:55:21.172Z,22.85
2023-01-20T21:57:52.714Z,22.67
2023-01-20T22:00:24.128Z,22.48
2023-01-20T22:02:54.910Z,22.50
2023-01-20T22:05:25.699Z,22.55
2023-01-20T22:07:56.417Z,21.77
2023-01-20T22:10:27.232Z,22.58
2023-01-20T22:12:58.458Z,22.17
2023-01-20T22:15:29.180Z,22.20
2023-01-20T22:18:00.456Z,22.87
2023-01-20T22:20:31.379Z,22.93
2023-01-20T22:23:02.075Z,22.85
2023-01-20T22:25:32.782Z,22.13
2023-01-20T22:28:03.573Z,22.32
2023-01-20T22:30:34.823Z,23.20
2023-01-20T22:33:05.666Z,21.82
2023-01-20T22:35:36.606Z,20.43
2023-01-20T22:38:08.932Z,22.17
2023-01-20T22:40:39.739Z,21.80
2023-01-20T22:43:10.451Z,22.48
2023-01-20T22:45:41.673Z,21.73
2023-01-20T22:48:12.481Z,21.02
2023-01-20T22:50:43.223Z,22.10
2023-01-20T22:53:13.893Z,22.17
2023-01-20T22:56:00.551Z,23.05
2023-01-20T22:58:22.712Z,22.32
2023-01-20T23:00:54.829Z,22.13
2023-01-20T23:03:25.618Z,23.50
2023-01-20T23:06:01.407Z,22.02
2023-01-20T23:08:51.220Z,23.27
2023-01-20T23:11:23.854Z,22.77
2023-01-20T23:14:14.576Z,22.85
2023-01-20T23:16:46.109Z,22.52
2023-01-20T23:19:17.347Z,21.25
2023-01-20T23:21:48.151Z,21.93
2023-01-20T23:24:18.874Z,21.55
2023-01-20T23:26:50.577Z,22.93
2023-01-20T23:29:21.597Z,26.42
2023-01-20T23:31:52.510Z,35.45
2023-01-20T23:34:23.244Z,39.60
2023-01-20T23:36:54.157Z,26.97
2023-01-20T23:39:25.263Z,26.17
2023-01-20T23:41:56.019Z,25.17
2023-01-20T23:44:26.803Z,25.50
2023-01-20T23:46:57.481Z,27.55
2023-01-20T23:49:28.290Z,26.20
2023-01-20T23:51:58.993Z,30.68
2023-01-20T23:54:29.708Z,40.28
2023-01-20T23:57:00.415Z,42.27
2023-01-20T23:59:31.221Z,31.62
